APJ287 RJFF-ROAH
Flight info
| Callsign | APJ287 |
|---|---|
| Flight time | 1h 21m |
| Altitude | 36000 |
| Route | YAMGA VEMRA Y506 HKC Y45 ONC Y525 IHEYA |
| Aircraft | A320/M-SDE3FGHIRWY/LB1 |
Departure
| Time | 2026-04-29 07:59 |
|---|---|
| Airport | Fukuoka Airport (RJFF) |
Arrival
| Time | 2026-04-29 09:21 |
|---|---|
| Airport | Naha International Airport (ROAH) |
| Time | Latitude | Longitude | Altitude | Speed | Heading |
|---|---|---|---|---|---|
| 2026-04-29 07:14 | 33.59945 | 130.44562 | 21 ft | 0 kts | 63° |
| 2026-04-29 07:19 | 33.59945 | 130.44563 | 21 ft | 0 kts | 63° |
| 2026-04-29 07:19 | 33.59947 | 130.44567 | 21 ft | 1 kts | 63° |
| 2026-04-29 07:19 | 33.59949 | 130.44571 | 23 ft | 0 kts | 63° |
| 2026-04-29 07:44 | 33.59947 | 130.44567 | -6 ft | 2 kts | 63° |
| 2026-04-29 07:44 | 33.59939 | 130.44549 | -6 ft | 2 kts | 63° |
| 2026-04-29 07:44 | 33.59932 | 130.44531 | 6 ft | 2 kts | 63° |
| 2026-04-29 07:45 | 33.59924 | 130.44513 | 27 ft | 2 kts | 63° |
| 2026-04-29 07:45 | 33.59916 | 130.44495 | 21 ft | 2 kts | 86° |
| 2026-04-29 07:45 | 33.59920 | 130.44477 | 22 ft | 1 kts | 149° |
| 2026-04-29 07:48 | 33.59919 | 130.44478 | 22 ft | 1 kts | 150° |
| 2026-04-29 07:48 | 33.59914 | 130.44481 | 23 ft | 2 kts | 147° |
| 2026-04-29 07:48 | 33.59889 | 130.44508 | 21 ft | 7 kts | 140° |
| 2026-04-29 07:48 | 33.59832 | 130.44546 | 21 ft | 9 kts | 158° |
| 2026-04-29 07:49 | 33.59780 | 130.44526 | 23 ft | 7 kts | 211° |
| 2026-04-29 07:49 | 33.59723 | 130.44526 | 22 ft | 15 kts | 158° |
| 2026-04-29 07:49 | 33.59612 | 130.44599 | 22 ft | 18 kts | 150° |
| 2026-04-29 07:49 | 33.59510 | 130.44669 | 23 ft | 16 kts | 150° |
| 2026-04-29 07:50 | 33.59419 | 130.44730 | 25 ft | 14 kts | 150° |
| 2026-04-29 07:50 | 33.59342 | 130.44783 | 24 ft | 12 kts | 149° |
| 2026-04-29 07:50 | 33.59246 | 130.44849 | 27 ft | 24 kts | 150° |
| 2026-04-29 07:50 | 33.59093 | 130.44954 | 29 ft | 26 kts | 150° |
| 2026-04-29 07:51 | 33.58938 | 130.45061 | 28 ft | 26 kts | 150° |
| 2026-04-29 07:51 | 33.58777 | 130.45170 | 29 ft | 27 kts | 149° |
| 2026-04-29 07:51 | 33.58614 | 130.45281 | 30 ft | 27 kts | 149° |
| 2026-04-29 07:51 | 33.58446 | 130.45395 | 32 ft | 27 kts | 151° |
| 2026-04-29 07:52 | 33.58295 | 130.45500 | 33 ft | 23 kts | 150° |
| 2026-04-29 07:52 | 33.58159 | 130.45593 | 34 ft | 23 kts | 150° |
| 2026-04-29 07:52 | 33.58020 | 130.45688 | 35 ft | 23 kts | 151° |
| 2026-04-29 07:52 | 33.57884 | 130.45781 | 37 ft | 22 kts | 150° |
| 2026-04-29 07:53 | 33.57751 | 130.45873 | 37 ft | 20 kts | 149° |
| 2026-04-29 07:53 | 33.57639 | 130.45948 | 39 ft | 12 kts | 153° |
| 2026-04-29 07:53 | 33.57577 | 130.45946 | 39 ft | 7 kts | 213° |
| 2026-04-29 07:53 | 33.57568 | 130.45937 | 38 ft | 0 kts | 225° |
| 2026-04-29 07:58 | 33.57543 | 130.45891 | 39 ft | 8 kts | 241° |
| 2026-04-29 07:58 | 33.57525 | 130.45847 | 40 ft | 5 kts | 252° |
| 2026-04-29 07:58 | 33.57556 | 130.45780 | 40 ft | 12 kts | 322° |
| 2026-04-29 07:58 | 33.57597 | 130.45747 | 40 ft | 0 kts | 331° |
| 2026-04-29 07:59 | 33.57602 | 130.45743 | 39 ft | 8 kts | 331° |
| 2026-04-29 07:59 | 33.57914 | 130.45532 | 37 ft | 94 kts | 330° |
| 2026-04-29 07:59 | 33.58695 | 130.45001 | 47 ft | 159 kts | 331° |
| 2026-04-29 07:59 | 33.59688 | 130.44346 | 803 ft | 167 kts | 333° |
| 2026-04-29 08:00 | 33.60804 | 130.43652 | 1291 ft | 199 kts | 333° |
| 2026-04-29 08:00 | 33.62091 | 130.42788 | 1864 ft | 218 kts | 332° |
| 2026-04-29 08:00 | 33.63429 | 130.41852 | 2643 ft | 232 kts | 330° |
| 2026-04-29 08:00 | 33.64904 | 130.40987 | 3414 ft | 246 kts | 348° |
| 2026-04-29 08:01 | 33.66624 | 130.41148 | 4195 ft | 261 kts | 22° |
| 2026-04-29 08:01 | 33.68058 | 130.42554 | 4976 ft | 278 kts | 52° |
| 2026-04-29 08:01 | 33.69008 | 130.44526 | 5543 ft | 291 kts | 65° |
| 2026-04-29 08:01 | 33.69304 | 130.46920 | 6401 ft | 294 kts | 99° |
| 2026-04-29 08:02 | 33.68683 | 130.49237 | 7245 ft | 293 kts | 121° |
| 2026-04-29 08:02 | 33.67453 | 130.51172 | 8059 ft | 292 kts | 143° |
| 2026-04-29 08:02 | 33.65791 | 130.52487 | 8862 ft | 292 kts | 154° |
| 2026-04-29 08:02 | 33.64016 | 130.53706 | 9731 ft | 294 kts | 159° |
| 2026-04-29 08:03 | 33.62175 | 130.54662 | 10500 ft | 296 kts | 163° |
| 2026-04-29 08:03 | 33.60227 | 130.55642 | 11267 ft | 300 kts | 163° |
| 2026-04-29 08:03 | 33.58288 | 130.56614 | 12027 ft | 304 kts | 163° |
| 2026-04-29 08:03 | 33.56323 | 130.57598 | 12774 ft | 309 kts | 163° |
| 2026-04-29 08:04 | 33.54267 | 130.58620 | 13104 ft | 332 kts | 163° |
| 2026-04-29 08:04 | 33.52085 | 130.59701 | 13510 ft | 347 kts | 163° |
| 2026-04-29 08:04 | 33.49832 | 130.60827 | 14143 ft | 353 kts | 163° |
| 2026-04-29 08:04 | 33.47562 | 130.61974 | 14762 ft | 356 kts | 163° |
| 2026-04-29 08:05 | 33.45285 | 130.63129 | 15374 ft | 360 kts | 164° |
| 2026-04-29 08:05 | 33.42941 | 130.64165 | 15991 ft | 358 kts | 171° |
| 2026-04-29 08:05 | 33.40538 | 130.64987 | 16632 ft | 360 kts | 172° |
| 2026-04-29 08:05 | 33.38118 | 130.65804 | 17250 ft | 363 kts | 172° |
| 2026-04-29 08:06 | 33.35673 | 130.66624 | 17872 ft | 366 kts | 173° |
| 2026-04-29 08:06 | 33.33214 | 130.67443 | 18472 ft | 368 kts | 173° |
| 2026-04-29 08:06 | 33.30739 | 130.68269 | 18961 ft | 371 kts | 172° |
| 2026-04-29 08:06 | 33.28244 | 130.69104 | 19466 ft | 374 kts | 173° |
| 2026-04-29 08:07 | 33.25757 | 130.69937 | 19927 ft | 378 kts | 173° |
| 2026-04-29 08:07 | 33.23224 | 130.70787 | 20073 ft | 379 kts | 173° |
| 2026-04-29 08:07 | 33.20692 | 130.71643 | 20102 ft | 378 kts | 173° |
| 2026-04-29 08:07 | 33.18149 | 130.72503 | 20423 ft | 381 kts | 173° |
| 2026-04-29 08:08 | 33.15586 | 130.73370 | 20919 ft | 384 kts | 173° |
| 2026-04-29 08:08 | 33.13004 | 130.74237 | 21397 ft | 385 kts | 174° |
| 2026-04-29 08:08 | 33.10457 | 130.74817 | 21867 ft | 379 kts | 183° |
| 2026-04-29 08:08 | 33.07844 | 130.74901 | 22408 ft | 373 kts | 192° |
| 2026-04-29 08:09 | 33.05256 | 130.74599 | 22832 ft | 376 kts | 194° |
| 2026-04-29 08:09 | 33.02649 | 130.74267 | 23312 ft | 380 kts | 194° |
| 2026-04-29 08:09 | 33.00015 | 130.73936 | 23800 ft | 382 kts | 194° |
| 2026-04-29 08:09 | 32.97356 | 130.73609 | 24222 ft | 384 kts | 194° |
| 2026-04-29 08:10 | 32.94692 | 130.73286 | 24636 ft | 386 kts | 194° |
| 2026-04-29 08:10 | 32.92007 | 130.72963 | 25033 ft | 388 kts | 194° |
| 2026-04-29 08:10 | 32.89317 | 130.72641 | 25411 ft | 390 kts | 194° |
| 2026-04-29 08:10 | 32.86655 | 130.72321 | 25730 ft | 392 kts | 194° |
| 2026-04-29 08:11 | 32.83891 | 130.71988 | 26098 ft | 395 kts | 194° |
| 2026-04-29 08:11 | 32.81149 | 130.71657 | 26450 ft | 397 kts | 194° |
| 2026-04-29 08:11 | 32.78428 | 130.71326 | 26816 ft | 399 kts | 194° |
| 2026-04-29 08:11 | 32.75678 | 130.70990 | 27151 ft | 401 kts | 194° |
| 2026-04-29 08:12 | 32.72876 | 130.70650 | 27497 ft | 403 kts | 194° |
| 2026-04-29 08:12 | 32.70095 | 130.70314 | 27830 ft | 405 kts | 194° |
| 2026-04-29 08:12 | 32.67268 | 130.69970 | 28122 ft | 408 kts | 194° |
| 2026-04-29 08:12 | 32.64429 | 130.69622 | 28424 ft | 411 kts | 194° |
| 2026-04-29 08:13 | 32.61612 | 130.69278 | 28727 ft | 413 kts | 194° |
| 2026-04-29 08:13 | 32.58706 | 130.68927 | 29046 ft | 416 kts | 194° |
| 2026-04-29 08:13 | 32.55826 | 130.68580 | 29356 ft | 418 kts | 194° |
| 2026-04-29 08:13 | 32.52969 | 130.68235 | 29663 ft | 420 kts | 194° |
| 2026-04-29 08:14 | 32.50006 | 130.67880 | 29989 ft | 422 kts | 194° |
| 2026-04-29 08:14 | 32.47085 | 130.67530 | 30288 ft | 422 kts | 193° |
| 2026-04-29 08:14 | 32.44174 | 130.67182 | 30601 ft | 422 kts | 194° |
| 2026-04-29 08:14 | 32.41242 | 130.66831 | 30974 ft | 421 kts | 194° |
| 2026-04-29 08:15 | 32.38368 | 130.66490 | 31354 ft | 420 kts | 194° |
| 2026-04-29 08:15 | 32.35466 | 130.66144 | 31742 ft | 418 kts | 194° |
| 2026-04-29 08:15 | 32.32578 | 130.65796 | 32121 ft | 417 kts | 194° |
| 2026-04-29 08:15 | 32.29691 | 130.65445 | 32494 ft | 416 kts | 194° |
| 2026-04-29 08:16 | 32.26815 | 130.65098 | 32874 ft | 415 kts | 194° |
| 2026-04-29 08:16 | 32.23946 | 130.64753 | 33227 ft | 414 kts | 194° |
| 2026-04-29 08:16 | 32.21067 | 130.64409 | 33583 ft | 414 kts | 194° |
| 2026-04-29 08:16 | 32.18203 | 130.64067 | 33956 ft | 412 kts | 194° |
| 2026-04-29 08:17 | 32.15366 | 130.63728 | 34241 ft | 412 kts | 194° |
| 2026-04-29 08:17 | 32.12517 | 130.63385 | 34508 ft | 411 kts | 194° |
| 2026-04-29 08:17 | 32.09667 | 130.63043 | 34745 ft | 412 kts | 194° |
| 2026-04-29 08:17 | 32.06852 | 130.62703 | 34981 ft | 412 kts | 194° |
| 2026-04-29 08:18 | 32.03994 | 130.62358 | 35237 ft | 412 kts | 194° |
| 2026-04-29 08:18 | 32.01140 | 130.62016 | 35483 ft | 412 kts | 194° |
| 2026-04-29 08:18 | 31.98304 | 130.61681 | 35724 ft | 412 kts | 194° |
| 2026-04-29 08:18 | 31.95433 | 130.61343 | 35938 ft | 412 kts | 195° |
| 2026-04-29 08:19 | 31.89729 | 130.60664 | 36015 ft | 412 kts | 194° |
| 2026-04-29 08:19 | 31.84079 | 130.59997 | 36032 ft | 410 kts | 194° |
| 2026-04-29 08:20 | 31.78349 | 130.59314 | 36034 ft | 418 kts | 194° |
| 2026-04-29 08:20 | 31.72447 | 130.58606 | 36037 ft | 429 kts | 194° |
| 2026-04-29 08:21 | 31.66764 | 130.56948 | 36043 ft | 417 kts | 209° |
| 2026-04-29 08:21 | 31.61351 | 130.54468 | 36065 ft | 418 kts | 208° |
| 2026-04-29 08:22 | 31.55913 | 130.52032 | 36063 ft | 419 kts | 208° |
| 2026-04-29 08:22 | 31.50490 | 130.49667 | 36061 ft | 418 kts | 207° |
| 2026-04-29 08:23 | 31.45035 | 130.47293 | 36073 ft | 418 kts | 208° |
| 2026-04-29 08:23 | 31.39610 | 130.44915 | 36070 ft | 418 kts | 208° |
| 2026-04-29 08:24 | 31.35042 | 130.42904 | 36066 ft | 418 kts | 208° |
| 2026-04-29 08:24 | 31.29587 | 130.40513 | 36048 ft | 418 kts | 207° |
| 2026-04-29 08:25 | 31.24147 | 130.38098 | 36053 ft | 417 kts | 208° |
| 2026-04-29 08:25 | 31.18763 | 130.35558 | 36057 ft | 417 kts | 209° |
| 2026-04-29 08:26 | 31.13396 | 130.32988 | 36040 ft | 417 kts | 209° |
| 2026-04-29 08:26 | 31.08047 | 130.30456 | 36046 ft | 418 kts | 209° |
| 2026-04-29 08:27 | 31.02643 | 130.27928 | 36054 ft | 419 kts | 208° |
| 2026-04-29 08:27 | 30.97225 | 130.25400 | 36043 ft | 419 kts | 208° |
| 2026-04-29 08:28 | 30.91800 | 130.22886 | 36064 ft | 419 kts | 208° |
| 2026-04-29 08:28 | 30.86389 | 130.20367 | 36067 ft | 419 kts | 209° |
| 2026-04-29 08:29 | 30.81023 | 130.17866 | 36069 ft | 419 kts | 209° |
| 2026-04-29 08:29 | 30.75663 | 130.15381 | 36045 ft | 418 kts | 208° |
| 2026-04-29 08:30 | 30.67491 | 130.11592 | 36051 ft | 418 kts | 208° |
| 2026-04-29 08:31 | 30.62119 | 130.09107 | 36057 ft | 418 kts | 208° |
| 2026-04-29 08:31 | 30.56705 | 130.06603 | 36047 ft | 419 kts | 208° |
| 2026-04-29 08:32 | 30.51263 | 130.04133 | 36051 ft | 420 kts | 208° |
| 2026-04-29 08:32 | 30.45814 | 130.01691 | 36067 ft | 420 kts | 208° |
| 2026-04-29 08:33 | 30.40342 | 129.99246 | 36030 ft | 422 kts | 208° |
| 2026-04-29 08:33 | 30.34823 | 129.96767 | 36037 ft | 423 kts | 208° |
| 2026-04-29 08:34 | 30.29287 | 129.94372 | 36050 ft | 426 kts | 206° |
| 2026-04-29 08:34 | 30.23687 | 129.92083 | 36050 ft | 427 kts | 206° |
| 2026-04-29 08:35 | 30.18084 | 129.89798 | 36043 ft | 427 kts | 206° |
| 2026-04-29 08:35 | 30.12489 | 129.87483 | 36051 ft | 427 kts | 206° |
| 2026-04-29 08:36 | 30.06997 | 129.85198 | 36053 ft | 427 kts | 206° |
| 2026-04-29 08:36 | 30.01404 | 129.82877 | 36036 ft | 427 kts | 206° |
| 2026-04-29 08:37 | 29.95851 | 129.80463 | 36055 ft | 425 kts | 208° |
| 2026-04-29 08:37 | 29.90375 | 129.77891 | 36063 ft | 424 kts | 209° |
| 2026-04-29 08:38 | 29.84947 | 129.75336 | 36048 ft | 424 kts | 208° |
| 2026-04-29 08:38 | 29.79420 | 129.72779 | 36055 ft | 425 kts | 208° |
| 2026-04-29 08:39 | 29.73922 | 129.70263 | 36051 ft | 425 kts | 208° |
| 2026-04-29 08:39 | 29.68492 | 129.67766 | 36056 ft | 425 kts | 208° |
| 2026-04-29 08:40 | 29.63000 | 129.65244 | 36066 ft | 425 kts | 208° |
| 2026-04-29 08:40 | 29.57528 | 129.62748 | 36061 ft | 425 kts | 208° |
| 2026-04-29 08:41 | 29.52033 | 129.60234 | 36069 ft | 425 kts | 208° |
| 2026-04-29 08:41 | 29.46526 | 129.57713 | 36055 ft | 425 kts | 208° |
| 2026-04-29 08:42 | 29.41019 | 129.55197 | 36046 ft | 426 kts | 208° |
| 2026-04-29 08:42 | 29.35533 | 129.52704 | 36056 ft | 426 kts | 208° |
| 2026-04-29 08:43 | 29.30025 | 129.50277 | 36057 ft | 427 kts | 206° |
| 2026-04-29 08:43 | 29.24362 | 129.47991 | 36035 ft | 429 kts | 205° |
| 2026-04-29 08:44 | 29.18726 | 129.45757 | 36040 ft | 429 kts | 205° |
| 2026-04-29 08:44 | 29.13142 | 129.43515 | 36044 ft | 429 kts | 205° |
| 2026-04-29 08:45 | 29.07493 | 129.41220 | 36021 ft | 430 kts | 205° |
| 2026-04-29 08:45 | 29.01855 | 129.38916 | 36027 ft | 430 kts | 205° |
| 2026-04-29 08:46 | 28.96221 | 129.36595 | 36034 ft | 430 kts | 206° |
| 2026-04-29 08:46 | 28.90631 | 129.34143 | 36054 ft | 430 kts | 207° |
| 2026-04-29 08:47 | 28.85095 | 129.31662 | 36041 ft | 430 kts | 206° |
| 2026-04-29 08:47 | 28.79465 | 129.29166 | 36039 ft | 431 kts | 206° |
| 2026-04-29 08:48 | 28.73865 | 129.26719 | 36038 ft | 431 kts | 206° |
| 2026-04-29 08:48 | 28.68257 | 129.24284 | 36026 ft | 431 kts | 206° |
| 2026-04-29 08:49 | 28.62700 | 129.21855 | 36029 ft | 432 kts | 206° |
| 2026-04-29 08:49 | 28.57090 | 129.19403 | 36040 ft | 432 kts | 206° |
| 2026-04-29 08:50 | 28.51712 | 129.17055 | 36040 ft | 432 kts | 206° |
| 2026-04-29 08:50 | 28.46080 | 129.14604 | 36034 ft | 432 kts | 206° |
| 2026-04-29 08:51 | 28.40475 | 129.12168 | 36039 ft | 433 kts | 206° |
| 2026-04-29 08:51 | 28.34826 | 129.09721 | 36050 ft | 433 kts | 206° |
| 2026-04-29 08:52 | 28.29212 | 129.07290 | 36045 ft | 433 kts | 206° |
| 2026-04-29 08:52 | 28.23577 | 129.04844 | 36038 ft | 433 kts | 206° |
| 2026-04-29 08:53 | 28.17971 | 129.02431 | 36041 ft | 434 kts | 206° |
| 2026-04-29 08:53 | 28.12333 | 128.99972 | 36041 ft | 434 kts | 207° |
| 2026-04-29 08:54 | 28.06747 | 128.97397 | 36026 ft | 433 kts | 207° |
| 2026-04-29 08:54 | 28.01166 | 128.94804 | 36029 ft | 434 kts | 207° |
| 2026-04-29 08:55 | 27.95552 | 128.92236 | 36031 ft | 435 kts | 207° |
| 2026-04-29 08:55 | 27.89932 | 128.89689 | 36034 ft | 435 kts | 207° |
| 2026-04-29 08:56 | 27.84310 | 128.87239 | 36030 ft | 436 kts | 206° |
| 2026-04-29 08:56 | 27.78632 | 128.84857 | 36032 ft | 436 kts | 206° |
| 2026-04-29 08:57 | 27.72919 | 128.82452 | 36031 ft | 436 kts | 206° |
| 2026-04-29 08:57 | 27.67223 | 128.80032 | 36026 ft | 436 kts | 206° |
| 2026-04-29 08:58 | 27.61545 | 128.77621 | 36020 ft | 437 kts | 206° |
| 2026-04-29 08:58 | 27.55862 | 128.75217 | 36012 ft | 437 kts | 206° |
| 2026-04-29 08:59 | 27.50196 | 128.72821 | 35974 ft | 430 kts | 206° |
| 2026-04-29 08:59 | 27.47478 | 128.71600 | 35508 ft | 426 kts | 211° |
| 2026-04-29 08:59 | 27.44947 | 128.69933 | 34926 ft | 418 kts | 220° |
| 2026-04-29 08:59 | 27.42781 | 128.67852 | 34360 ft | 414 kts | 229° |
| 2026-04-29 09:00 | 27.40952 | 128.65361 | 33789 ft | 412 kts | 238° |
| 2026-04-29 09:00 | 27.39468 | 128.62609 | 33161 ft | 412 kts | 242° |
| 2026-04-29 09:00 | 27.38007 | 128.59806 | 32525 ft | 415 kts | 241° |
| 2026-04-29 09:00 | 27.36536 | 128.57009 | 31908 ft | 417 kts | 241° |
| 2026-04-29 09:01 | 27.35052 | 128.54206 | 31316 ft | 419 kts | 240° |
| 2026-04-29 09:01 | 27.33551 | 128.51381 | 30733 ft | 420 kts | 240° |
| 2026-04-29 09:01 | 27.32051 | 128.48559 | 30149 ft | 421 kts | 240° |
| 2026-04-29 09:01 | 27.30549 | 128.45722 | 29487 ft | 421 kts | 240° |
| 2026-04-29 09:02 | 27.29082 | 128.42939 | 28832 ft | 418 kts | 240° |
| 2026-04-29 09:02 | 27.27610 | 128.40145 | 28193 ft | 415 kts | 240° |
| 2026-04-29 09:02 | 27.26140 | 128.37358 | 27559 ft | 412 kts | 240° |
| 2026-04-29 09:02 | 27.24680 | 128.34593 | 26943 ft | 409 kts | 240° |
| 2026-04-29 09:03 | 27.23220 | 128.31830 | 26341 ft | 413 kts | 240° |
| 2026-04-29 09:03 | 27.21754 | 128.29061 | 25754 ft | 414 kts | 240° |
| 2026-04-29 09:03 | 27.20277 | 128.26277 | 25177 ft | 412 kts | 239° |
| 2026-04-29 09:03 | 27.18819 | 128.23535 | 24618 ft | 410 kts | 239° |
| 2026-04-29 09:04 | 27.17358 | 128.20785 | 24054 ft | 407 kts | 239° |
| 2026-04-29 09:04 | 27.15915 | 128.18065 | 23500 ft | 404 kts | 239° |
| 2026-04-29 09:04 | 27.14482 | 128.15362 | 22849 ft | 402 kts | 239° |
| 2026-04-29 09:04 | 27.13055 | 128.12677 | 22216 ft | 398 kts | 239° |
| 2026-04-29 09:05 | 27.11650 | 128.10040 | 21598 ft | 395 kts | 239° |
| 2026-04-29 09:05 | 27.10249 | 128.07410 | 20979 ft | 392 kts | 239° |
| 2026-04-29 09:05 | 27.08847 | 128.04783 | 20390 ft | 389 kts | 239° |
| 2026-04-29 09:05 | 27.07458 | 128.02182 | 19799 ft | 386 kts | 239° |
| 2026-04-29 09:06 | 27.06082 | 127.99604 | 19219 ft | 384 kts | 239° |
| 2026-04-29 09:06 | 27.04729 | 127.97074 | 18665 ft | 381 kts | 239° |
| 2026-04-29 09:06 | 27.03358 | 127.94502 | 18074 ft | 379 kts | 239° |
| 2026-04-29 09:06 | 27.01940 | 127.92026 | 17419 ft | 376 kts | 232° |
| 2026-04-29 09:07 | 27.00132 | 127.89978 | 16806 ft | 375 kts | 219° |
| 2026-04-29 09:07 | 26.97877 | 127.88417 | 16178 ft | 376 kts | 209° |
| 2026-04-29 09:07 | 26.95552 | 127.87102 | 15577 ft | 374 kts | 209° |
| 2026-04-29 09:07 | 26.93272 | 127.85812 | 14993 ft | 371 kts | 209° |
| 2026-04-29 09:08 | 26.90983 | 127.84518 | 14401 ft | 354 kts | 209° |
| 2026-04-29 09:08 | 26.88854 | 127.83313 | 13839 ft | 340 kts | 209° |
| 2026-04-29 09:08 | 26.86784 | 127.82136 | 13204 ft | 328 kts | 209° |
| 2026-04-29 09:08 | 26.84789 | 127.80997 | 12617 ft | 316 kts | 209° |
| 2026-04-29 09:09 | 26.82873 | 127.79904 | 12122 ft | 303 kts | 209° |
| 2026-04-29 09:09 | 26.81040 | 127.78862 | 11620 ft | 293 kts | 209° |
| 2026-04-29 09:09 | 26.79229 | 127.77834 | 11036 ft | 287 kts | 209° |
| 2026-04-29 09:09 | 26.77461 | 127.76832 | 10454 ft | 282 kts | 209° |
| 2026-04-29 09:10 | 26.75726 | 127.75847 | 9880 ft | 277 kts | 210° |
| 2026-04-29 09:10 | 26.74591 | 127.75202 | 9457 ft | 275 kts | 209° |
| 2026-04-29 09:10 | 26.72334 | 127.73920 | 8603 ft | 269 kts | 209° |
| 2026-04-29 09:10 | 26.70676 | 127.72981 | 8007 ft | 265 kts | 208° |
| 2026-04-29 09:11 | 26.69590 | 127.72365 | 7606 ft | 263 kts | 208° |
| 2026-04-29 09:11 | 26.67976 | 127.71449 | 7016 ft | 259 kts | 208° |
| 2026-04-29 09:11 | 26.66370 | 127.70540 | 6428 ft | 256 kts | 208° |
| 2026-04-29 09:11 | 26.64791 | 127.69645 | 5807 ft | 253 kts | 207° |
| 2026-04-29 09:12 | 26.63230 | 127.68761 | 5192 ft | 249 kts | 207° |
| 2026-04-29 09:12 | 26.61695 | 127.67889 | 4597 ft | 246 kts | 207° |
| 2026-04-29 09:12 | 26.60183 | 127.67033 | 4104 ft | 242 kts | 206° |
| 2026-04-29 09:12 | 26.58679 | 127.66185 | 3611 ft | 240 kts | 206° |
| 2026-04-29 09:13 | 26.57240 | 127.65373 | 3139 ft | 235 kts | 206° |
| 2026-04-29 09:13 | 26.55782 | 127.64551 | 2638 ft | 229 kts | 205° |
| 2026-04-29 09:13 | 26.54382 | 127.63762 | 2166 ft | 225 kts | 204° |
| 2026-04-29 09:13 | 26.53026 | 127.62995 | 2038 ft | 212 kts | 204° |
| 2026-04-29 09:14 | 26.51735 | 127.62263 | 2041 ft | 206 kts | 204° |
| 2026-04-29 09:14 | 26.50447 | 127.61602 | 2036 ft | 202 kts | 195° |
| 2026-04-29 09:14 | 26.49118 | 127.61286 | 2043 ft | 201 kts | 183° |
| 2026-04-29 09:14 | 26.47729 | 127.61233 | 2039 ft | 200 kts | 181° |
| 2026-04-29 09:15 | 26.46329 | 127.61217 | 2040 ft | 200 kts | 178° |
| 2026-04-29 09:15 | 26.44943 | 127.61288 | 2042 ft | 199 kts | 175° |
| 2026-04-29 09:15 | 26.43578 | 127.61387 | 2035 ft | 200 kts | 175° |
| 2026-04-29 09:15 | 26.42183 | 127.61495 | 2038 ft | 201 kts | 175° |
| 2026-04-29 09:16 | 26.40781 | 127.61605 | 2040 ft | 202 kts | 175° |
| 2026-04-29 09:16 | 26.39376 | 127.61715 | 2032 ft | 202 kts | 175° |
| 2026-04-29 09:16 | 26.37976 | 127.61825 | 2038 ft | 202 kts | 175° |
| 2026-04-29 09:16 | 26.36596 | 127.61934 | 2039 ft | 201 kts | 175° |
| 2026-04-29 09:17 | 26.35208 | 127.62043 | 2042 ft | 201 kts | 175° |
| 2026-04-29 09:17 | 26.33811 | 127.62152 | 2041 ft | 201 kts | 175° |
| 2026-04-29 09:17 | 26.32470 | 127.62258 | 2044 ft | 197 kts | 175° |
| 2026-04-29 09:17 | 26.31126 | 127.62362 | 1979 ft | 185 kts | 175° |
| 2026-04-29 09:18 | 26.29920 | 127.62456 | 1837 ft | 166 kts | 174° |
| 2026-04-29 09:18 | 26.28828 | 127.62541 | 1652 ft | 149 kts | 173° |
| 2026-04-29 09:18 | 26.27814 | 127.62621 | 1451 ft | 144 kts | 173° |
| 2026-04-29 09:18 | 26.26822 | 127.62700 | 1262 ft | 142 kts | 172° |
| 2026-04-29 09:19 | 26.25839 | 127.62777 | 1071 ft | 141 kts | 173° |
| 2026-04-29 09:19 | 26.24860 | 127.62862 | 903 ft | 141 kts | 171° |
| 2026-04-29 09:19 | 26.23879 | 127.62994 | 781 ft | 141 kts | 173° |
| 2026-04-29 09:19 | 26.22898 | 127.63071 | 635 ft | 140 kts | 175° |
| 2026-04-29 09:20 | 26.21942 | 127.63128 | 400 ft | 140 kts | 175° |
| 2026-04-29 09:20 | 26.20969 | 127.63190 | 215 ft | 139 kts | 173° |
| 2026-04-29 09:20 | 26.20026 | 127.63256 | 45 ft | 130 kts | 172° |
| 2026-04-29 09:20 | 26.19206 | 127.63305 | 26 ft | 105 kts | 176° |
| 2026-04-29 09:21 | 26.18595 | 127.63329 | 22 ft | 66 kts | 177° |
| 2026-04-29 09:21 | 26.18219 | 127.63345 | 24 ft | 43 kts | 176° |
| 2026-04-29 09:21 | 26.18007 | 127.63366 | 25 ft | 16 kts | 153° |
| 2026-04-29 09:21 | 26.17974 | 127.63480 | 23 ft | 17 kts | 88° |
| 2026-04-29 09:22 | 26.18055 | 127.63546 | 23 ft | 15 kts | 1° |
| 2026-04-29 09:22 | 26.18154 | 127.63541 | 23 ft | 14 kts | 357° |
| 2026-04-29 09:22 | 26.18249 | 127.63537 | 23 ft | 13 kts | 358° |
| 2026-04-29 09:22 | 26.18336 | 127.63533 | 23 ft | 13 kts | 358° |
| 2026-04-29 09:23 | 26.18442 | 127.63529 | 23 ft | 17 kts | 357° |
| 2026-04-29 09:23 | 26.18574 | 127.63522 | 22 ft | 22 kts | 357° |
| 2026-04-29 09:23 | 26.18737 | 127.63513 | 22 ft | 26 kts | 357° |
| 2026-04-29 09:23 | 26.18933 | 127.63504 | 22 ft | 29 kts | 357° |
| 2026-04-29 09:24 | 26.19139 | 127.63495 | 22 ft | 30 kts | 358° |
| 2026-04-29 09:24 | 26.19353 | 127.63485 | 22 ft | 32 kts | 358° |
| 2026-04-29 09:24 | 26.19582 | 127.63474 | 23 ft | 33 kts | 357° |
| 2026-04-29 09:24 | 26.19818 | 127.63463 | 23 ft | 35 kts | 357° |
| 2026-04-29 09:25 | 26.20059 | 127.63451 | 22 ft | 28 kts | 357° |
| 2026-04-29 09:25 | 26.20201 | 127.63469 | 23 ft | 17 kts | 45° |
| 2026-04-29 09:25 | 26.20220 | 127.63600 | 22 ft | 18 kts | 87° |
| 2026-04-29 09:25 | 26.20225 | 127.63745 | 22 ft | 20 kts | 87° |
| 2026-04-29 09:26 | 26.20233 | 127.63904 | 22 ft | 21 kts | 88° |
| 2026-04-29 09:26 | 26.20237 | 127.64071 | 22 ft | 22 kts | 88° |
| 2026-04-29 09:26 | 26.20244 | 127.64243 | 22 ft | 18 kts | 86° |
| 2026-04-29 09:26 | 26.20301 | 127.64333 | 22 ft | 15 kts | 22° |
| 2026-04-29 09:27 | 26.20338 | 127.64427 | 23 ft | 15 kts | 88° |
| 2026-04-29 09:27 | 26.20342 | 127.64545 | 24 ft | 16 kts | 88° |
| 2026-04-29 09:27 | 26.20360 | 127.64660 | 24 ft | 13 kts | 51° |
| 2026-04-29 09:27 | 26.20433 | 127.64709 | 22 ft | 12 kts | 27° |
| 2026-04-29 09:28 | 26.20503 | 127.64748 | 22 ft | 12 kts | 23° |
| 2026-04-29 09:28 | 26.20596 | 127.64755 | 22 ft | 14 kts | 358° |
| 2026-04-29 09:28 | 26.20695 | 127.64750 | 22 ft | 15 kts | 356° |
| 2026-04-29 09:28 | 26.20765 | 127.64754 | 22 ft | 6 kts | 24° |
| 2026-04-29 09:29 | 26.20772 | 127.64806 | 22 ft | 9 kts | 88° |
| 2026-04-29 09:29 | 26.20774 | 127.64839 | 22 ft | 0 kts | 86° |